Falcon, Mississippi
Current Conditions -  °F | °C
As of 12:55 PM on Thursday 23 Oct 2014 (Local Time) from KCKM Reporting Station
Clear Clear  
Wind Chill: 61°   Ceiling: Unl
Heat Index: 61°   Visibility: 10mi
Dew Point: 45°   Wind: 3mph
Humidity: 55%   Direction: 20°NNE
Pressure: 30.18"   Gusts: NA
Location:  34.39°N, 90.26°W
Report Text: KCKM 231755Z AUTO 02003KT 10SM CLR 16/07 A3018 RMK AO1
Loading
Personal Weather Stations






























Interactive Weather Map
Tropical Storm Tracking
New forecast layout! Learn more

10-Day Weather Forecast

Advertisements
Track Severe Weather on mobile